createdAt,value
2023-03-30T00:01:11.552Z,11.13
2023-03-30T00:03:44.519Z,11.11
2023-03-30T00:06:14.919Z,11.12
2023-03-30T00:08:43.457Z,11.22
2023-03-30T00:11:13.661Z,11.13
2023-03-30T00:13:43.267Z,11.11
2023-03-30T00:16:13.322Z,10.97
2023-03-30T00:18:41.680Z,11.04
2023-03-30T00:21:18.573Z,11.02
2023-03-30T00:23:48.210Z,10.99
2023-03-30T00:26:16.942Z,10.97
2023-03-30T00:28:45.865Z,11.01
2023-03-30T00:31:14.447Z,11.02
2023-03-30T00:33:47.168Z,11.06
2023-03-30T00:36:16.591Z,11.02
2023-03-30T00:38:46.238Z,11.03
2023-03-30T00:41:14.858Z,10.98
2023-03-30T00:44:39.303Z,10.92
2023-03-30T00:47:08.351Z,11.03
2023-03-30T00:49:36.898Z,10.98
2023-03-30T00:52:05.573Z,11.02
2023-03-30T00:54:36.751Z,10.98
2023-03-30T00:57:05.844Z,10.85
2023-03-30T00:59:38.884Z,10.94
2023-03-30T01:02:07.615Z,10.87
2023-03-30T01:04:37.811Z,10.93
2023-03-30T01:07:06.316Z,10.79
2023-03-30T01:09:34.820Z,10.92
2023-03-30T01:12:05.537Z,10.84
2023-03-30T01:14:34.297Z,10.84
2023-03-30T01:17:21.015Z,10.88
2023-03-30T01:20:03.271Z,10.77
2023-03-30T01:22:50.318Z,10.66
2023-03-30T01:25:25.321Z,10.62
2023-03-30T01:28:31.613Z,10.62
2023-03-30T01:31:25.905Z,10.53
2023-03-30T01:34:22.982Z,10.38
2023-03-30T01:37:04.902Z,10.35
2023-03-30T01:39:45.849Z,10.36
2023-03-30T01:42:21.872Z,10.27
2023-03-30T01:45:00.278Z,10.45
2023-03-30T01:47:39.255Z,10.39
2023-03-30T01:50:17.377Z,10.37
2023-03-30T01:52:56.481Z,10.29
2023-03-30T01:55:41.917Z,10.32
2023-03-30T01:58:20.578Z,10.44
2023-03-30T02:00:50.520Z,10.42
2023-03-30T02:03:22.955Z,10.39
2023-03-30T02:05:52.711Z,10.08
2023-03-30T02:08:26.292Z,10.17
2023-03-30T02:10:55.309Z,10.25
2023-03-30T02:13:23.726Z,10.29
2023-03-30T02:15:59.175Z,10.35
2023-03-30T02:18:29.031Z,10.55
2023-03-30T02:20:59.490Z,10.56
2023-03-30T02:23:29.225Z,10.62
2023-03-30T02:25:57.942Z,10.42
2023-03-30T02:28:28.217Z,10.29
2023-03-30T02:30:57.770Z,10.30
2023-03-30T02:33:42.510Z,10.35
2023-03-30T02:36:50.249Z,10.30
2023-03-30T02:39:22.258Z,10.37
2023-03-30T02:41:59.520Z,10.44
2023-03-30T02:44:53.425Z,10.34
2023-03-30T02:47:30.341Z,10.30
2023-03-30T02:50:02.784Z,10.22
2023-03-30T02:52:53.770Z,10.18
2023-03-30T02:55:46.279Z,10.21
2023-03-30T02:58:34.213Z,10.14
2023-03-30T03:01:20.444Z,10.15
2023-03-30T03:04:10.891Z,10.15
2023-03-30T03:06:48.329Z,10.18
2023-03-30T03:09:17.856Z,10.06
2023-03-30T03:11:46.572Z,9.90
2023-03-30T03:14:15.181Z,9.97
2023-03-30T03:16:43.699Z,9.94
2023-03-30T03:19:17.079Z,9.96
2023-03-30T03:21:49.542Z,9.90
2023-03-30T03:24:19.200Z,9.98
2023-03-30T03:27:12.520Z,10.08
2023-03-30T03:29:59.520Z,10.05
2023-03-30T03:32:28.614Z,10.01
2023-03-30T03:34:57.450Z,9.89
2023-03-30T03:37:26.880Z,9.86
2023-03-30T03:39:56.747Z,9.93
2023-03-30T03:42:27.281Z,9.91
2023-03-30T03:45:09.510Z,9.83
2023-03-30T03:47:39.072Z,9.96
2023-03-30T03:50:10.121Z,9.89
2023-03-30T03:52:39.648Z,9.72
2023-03-30T03:55:08.768Z,9.82
2023-03-30T03:57:39.580Z,9.76
2023-03-30T04:00:16.638Z,9.71
2023-03-30T04:03:06.570Z,9.80
2023-03-30T04:05:35.779Z,9.92
2023-03-30T04:08:10.868Z,9.89
2023-03-30T04:10:40.997Z,9.81
2023-03-30T04:13:48.514Z,9.81
2023-03-30T04:16:37.480Z,9.90
2023-03-30T04:19:46.690Z,9.79
2023-03-30T04:22:42.527Z,9.68
2023-03-30T04:25:40.750Z,9.76
2023-03-30T04:28:33.142Z,9.69
2023-03-30T04:31:13.144Z,9.76
2023-03-30T04:34:02.876Z,9.83
2023-03-30T04:36:49.334Z,9.91
2023-03-30T04:39:58.063Z,9.97
2023-03-30T04:42:41.218Z,10.00
2023-03-30T04:45:23.907Z,10.10
2023-03-30T04:48:13.673Z,10.11
2023-03-30T04:51:11.179Z,10.32
2023-03-30T04:53:58.549Z,10.35
2023-03-30T04:56:40.581Z,10.33
2023-03-30T04:59:32.286Z,10.34
2023-03-30T05:02:19.559Z,10.43
2023-03-30T05:04:48.352Z,10.56
2023-03-30T05:07:29.387Z,10.69
2023-03-30T05:10:11.685Z,10.75
2023-03-30T05:12:49.238Z,10.75
2023-03-30T05:15:29.390Z,10.73
2023-03-30T05:18:24.479Z,10.86
2023-03-30T05:21:14.081Z,11.01
2023-03-30T05:24:00.919Z,10.97
2023-03-30T05:27:05.394Z,11.10
2023-03-30T05:30:00.039Z,10.97
2023-03-30T05:32:32.764Z,11.02
2023-03-30T05:35:28.504Z,11.22
2023-03-30T05:38:13.096Z,11.32
2023-03-30T05:41:00.492Z,11.23
2023-03-30T05:43:49.209Z,11.33
2023-03-30T05:46:36.498Z,11.33
2023-03-30T05:49:23.490Z,11.49
2023-03-30T05:52:06.966Z,11.38
2023-03-30T05:54:58.622Z,11.63
2023-03-30T05:57:46.105Z,11.63
2023-03-30T06:00:29.077Z,11.64
2023-03-30T06:03:15.381Z,11.71
2023-03-30T06:05:44.598Z,11.50
2023-03-30T06:08:13.715Z,11.56
2023-03-30T06:10:53.009Z,11.86
2023-03-30T06:13:21.314Z,11.95
2023-03-30T06:16:02.923Z,11.94
2023-03-30T06:18:32.263Z,12.18
2023-03-30T06:21:08.968Z,12.17
2023-03-30T06:23:49.439Z,12.21
2023-03-30T06:26:21.292Z,12.30
2023-03-30T06:28:51.996Z,12.32
2023-03-30T06:31:21.049Z,12.28
2023-03-30T06:33:54.086Z,12.30
2023-03-30T06:36:22.647Z,12.26
2023-03-30T06:39:12.052Z,12.36
2023-03-30T06:41:41.180Z,12.51
2023-03-30T06:44:18.102Z,12.59
2023-03-30T06:46:48.074Z,12.73
2023-03-30T06:49:17.182Z,12.81
2023-03-30T06:51:45.938Z,13.04
2023-03-30T06:54:15.154Z,13.08
2023-03-30T06:56:52.916Z,13.21
2023-03-30T06:59:22.884Z,13.24
2023-03-30T07:02:14.985Z,13.44
2023-03-30T07:04:52.971Z,13.53
2023-03-30T07:07:54.173Z,13.61
2023-03-30T07:10:22.884Z,13.66
2023-03-30T07:12:51.726Z,13.77
2023-03-30T07:15:20.270Z,13.83
2023-03-30T07:17:49.280Z,13.91
2023-03-30T07:20:23.805Z,13.83
2023-03-30T07:23:06.680Z,14.04
2023-03-30T07:25:35.687Z,14.08
2023-03-30T07:28:11.279Z,14.19
2023-03-30T07:30:39.711Z,14.26
2023-03-30T07:33:12.541Z,14.33
2023-03-30T07:35:50.207Z,14.35
2023-03-30T07:38:23.066Z,14.32
2023-03-30T07:40:54.716Z,14.27
2023-03-30T07:43:24.710Z,14.21
2023-03-30T07:45:56.933Z,14.28
2023-03-30T07:48:33.212Z,14.43
2023-03-30T07:51:03.934Z,14.53
2023-03-30T07:53:34.128Z,14.69
2023-03-30T07:56:04.115Z,14.82
2023-03-30T07:58:40.229Z,14.95
2023-03-30T08:01:11.160Z,15.00
2023-03-30T08:04:12.326Z,15.15
2023-03-30T08:06:41.981Z,15.24
2023-03-30T08:09:10.958Z,15.30
2023-03-30T08:11:41.994Z,15.35
2023-03-30T08:14:11.708Z,15.33
2023-03-30T08:16:40.234Z,15.17
2023-03-30T08:19:08.833Z,15.19
2023-03-30T08:21:37.988Z,15.26
2023-03-30T08:24:07.621Z,15.35
2023-03-30T08:26:37.438Z,15.36
2023-03-30T08:29:07.306Z,15.34
2023-03-30T08:31:37.830Z,15.38
2023-03-30T08:34:08.175Z,15.49
2023-03-30T08:36:36.537Z,15.62
2023-03-30T08:39:10.993Z,15.65
2023-03-30T08:42:02.632Z,15.76
2023-03-30T08:44:38.280Z,15.97
2023-03-30T08:47:13.964Z,16.08
2023-03-30T08:49:45.191Z,16.21
2023-03-30T08:52:21.756Z,16.29
2023-03-30T08:54:52.371Z,16.00
2023-03-30T08:57:30.017Z,16.12
2023-03-30T09:01:26.669Z,15.23
2023-03-30T09:04:06.669Z,16.94
2023-03-30T09:06:41.039Z,17.01
2023-03-30T09:09:12.134Z,17.05
2023-03-30T09:11:41.469Z,17.04
2023-03-30T09:14:15.118Z,17.30
2023-03-30T09:16:52.980Z,17.26
2023-03-30T09:19:33.537Z,17.44
2023-03-30T09:22:03.034Z,17.48
2023-03-30T09:24:32.169Z,17.57
2023-03-30T09:27:42.959Z,17.57
2023-03-30T09:30:23.458Z,17.58
2023-03-30T09:33:06.995Z,17.51
2023-03-30T09:35:44.324Z,17.59
2023-03-30T09:38:13.615Z,17.71
2023-03-30T09:40:58.687Z,17.86
2023-03-30T09:43:35.541Z,17.92
2023-03-30T09:46:06.954Z,17.84
2023-03-30T09:48:42.039Z,17.95
2023-03-30T09:51:26.697Z,18.11
2023-03-30T09:54:03.576Z,18.28
2023-03-30T09:56:45.328Z,18.21
2023-03-30T09:59:33.363Z,18.39
2023-03-30T10:02:15.874Z,18.33
2023-03-30T10:04:54.418Z,18.27
2023-03-30T10:07:34.923Z,18.33
2023-03-30T10:10:14.501Z,18.46
2023-03-30T10:12:44.037Z,18.50
2023-03-30T10:15:18.750Z,18.56
2023-03-30T10:17:56.501Z,18.60
2023-03-30T10:20:30.916Z,18.66
2023-03-30T10:23:17.590Z,18.70
2023-03-30T10:25:50.429Z,18.78
2023-03-30T10:28:21.938Z,18.76
2023-03-30T10:31:14.005Z,18.95
2023-03-30T10:33:43.508Z,19.13
2023-03-30T10:36:12.577Z,19.09
2023-03-30T10:38:41.206Z,19.07
2023-03-30T10:41:14.415Z,19.04
2023-03-30T10:43:42.870Z,19.16
2023-03-30T10:46:20.341Z,19.31
2023-03-30T10:49:12.427Z,19.41
2023-03-30T10:52:03.065Z,19.45
2023-03-30T10:54:38.528Z,19.50
2023-03-30T10:57:14.630Z,19.43
2023-03-30T10:59:55.927Z,19.43
2023-03-30T11:02:54.808Z,19.53
2023-03-30T11:05:33.648Z,19.55
2023-03-30T11:08:13.071Z,19.75
2023-03-30T11:10:44.812Z,19.58
2023-03-30T11:13:31.788Z,19.69
2023-03-30T11:16:06.077Z,19.67
2023-03-30T11:18:42.830Z,19.69
2023-03-30T11:21:21.661Z,19.72
2023-03-30T11:23:52.721Z,19.92
2023-03-30T11:26:38.055Z,19.93
2023-03-30T11:29:09.090Z,20.04
2023-03-30T11:31:56.859Z,20.06
2023-03-30T11:34:27.239Z,20.04
2023-03-30T11:37:24.963Z,20.34
2023-03-30T11:40:00.930Z,20.26
2023-03-30T11:42:32.657Z,20.31
2023-03-30T11:45:01.852Z,20.40
2023-03-30T11:47:49.636Z,20.41
2023-03-30T11:50:39.269Z,20.62
2023-03-30T11:53:19.354Z,20.74
2023-03-30T11:55:55.538Z,20.55
2023-03-30T11:58:37.873Z,20.60
2023-03-30T12:01:26.993Z,20.65
2023-03-30T12:04:23.706Z,20.80
2023-03-30T12:06:53.505Z,20.99
2023-03-30T12:09:28.344Z,21.04
2023-03-30T12:12:18.733Z,21.24
2023-03-30T12:14:59.078Z,21.39
2023-03-30T12:17:54.978Z,21.38
2023-03-30T12:20:45.546Z,21.26
2023-03-30T12:24:05.819Z,21.37
2023-03-30T12:26:34.841Z,21.23
2023-03-30T12:29:56.316Z,21.19
2023-03-30T12:32:03.824Z,21.27
2023-03-30T12:34:36.700Z,21.35
2023-03-30T12:37:10.318Z,21.65
2023-03-30T12:39:49.293Z,21.78
2023-03-30T12:42:26.685Z,21.81
2023-03-30T12:45:04.555Z,21.79
2023-03-30T12:47:49.213Z,21.50
2023-03-30T12:50:23.983Z,21.50
2023-03-30T12:52:53.965Z,21.52
2023-03-30T12:55:53.730Z,21.43
2023-03-30T12:58:24.620Z,21.58
2023-03-30T13:01:23.915Z,22.08
2023-03-30T13:04:00.427Z,22.34
2023-03-30T13:06:31.162Z,22.28
2023-03-30T13:09:12.985Z,22.23
2023-03-30T13:11:45.359Z,22.39
2023-03-30T13:14:31.466Z,-71.19
2023-03-30T13:17:00.157Z,-128.00
2023-03-30T13:19:32.088Z,-128.00
2023-03-30T13:22:10.928Z,-128.00
2023-03-30T13:24:52.878Z,-128.00
2023-03-30T13:27:21.412Z,-128.00
2023-03-30T13:29:56.962Z,-128.00
2023-03-30T13:32:44.676Z,-128.00
2023-03-30T13:35:33.631Z,-128.00
2023-03-30T13:38:12.511Z,-128.00
2023-03-30T13:41:05.240Z,-128.00
2023-03-30T13:43:40.428Z,-128.00
2023-03-30T13:46:17.450Z,-128.00
2023-03-30T13:48:55.597Z,-128.00
2023-03-30T13:51:27.437Z,-128.00
2023-03-30T13:54:14.288Z,-128.00
2023-03-30T13:56:47.284Z,-128.00
2023-03-30T13:59:23.197Z,-128.00
2023-03-30T14:01:56.799Z,-128.00
2023-03-30T14:04:31.808Z,-128.00
2023-03-30T14:07:20.951Z,-128.00
2023-03-30T14:10:19.978Z,-128.00
2023-03-30T14:12:53.379Z,-128.00
2023-03-30T14:15:24.015Z,-128.00
2023-03-30T14:17:54.853Z,-128.00
2023-03-30T14:20:42.077Z,-128.00
2023-03-30T14:23:35.653Z,-128.00
2023-03-30T14:26:07.829Z,-128.00
2023-03-30T14:28:38.671Z,-128.00
2023-03-30T14:31:17.927Z,-128.00
2023-03-30T14:33:46.919Z,-128.00
2023-03-30T14:36:17.117Z,-128.00
2023-03-30T14:38:51.681Z,-128.00
2023-03-30T14:41:27.655Z,-128.00
2023-03-30T14:43:57.939Z,-128.00
2023-03-30T14:46:37.989Z,-128.00
2023-03-30T14:49:06.538Z,-128.00
2023-03-30T14:51:40.660Z,-128.00
2023-03-30T14:54:14.214Z,-128.00
2023-03-30T14:56:45.857Z,-128.00
2023-03-30T14:59:15.008Z,-128.00
2023-03-30T15:01:44.321Z,-128.00
2023-03-30T15:04:15.305Z,-128.00
2023-03-30T15:06:44.304Z,-128.00
2023-03-30T15:09:17.989Z,-128.00
2023-03-30T15:11:57.625Z,-128.00
2023-03-30T15:14:26.094Z,-128.00
2023-03-30T15:16:56.201Z,-128.00
2023-03-30T15:19:30.731Z,-128.00
2023-03-30T15:22:03.595Z,-128.00
2023-03-30T15:24:32.894Z,-128.00
2023-03-30T15:27:04.351Z,-128.00
2023-03-30T15:29:32.952Z,-128.00
2023-03-30T15:32:08.059Z,-128.00
2023-03-30T15:34:36.991Z,-128.00
2023-03-30T15:37:23.044Z,-128.00
2023-03-30T15:39:53.032Z,-128.00
2023-03-30T15:42:26.201Z,-128.00
2023-03-30T15:45:11.834Z,-128.00
2023-03-30T15:47:40.565Z,-128.00
2023-03-30T15:50:13.075Z,-128.00
2023-03-30T15:52:42.870Z,-128.00
2023-03-30T15:55:27.334Z,-128.00
2023-03-30T15:57:56.318Z,-128.00
2023-03-30T16:00:27.681Z,-128.00
2023-03-30T16:02:59.062Z,-128.00
2023-03-30T16:05:29.781Z,-128.00
2023-03-30T16:07:58.403Z,-128.00
2023-03-30T16:10:32.980Z,-128.00
2023-03-30T16:13:02.819Z,-128.00
2023-03-30T16:15:31.860Z,-128.00
2023-03-30T16:18:01.106Z,-128.00
2023-03-30T16:20:31.719Z,-128.00
2023-03-30T16:23:00.016Z,-128.00
2023-03-30T16:25:43.673Z,-128.00
2023-03-30T16:28:16.408Z,-128.00
2023-03-30T16:30:47.365Z,-128.00
2023-03-30T16:33:17.470Z,-128.00
2023-03-30T16:35:46.742Z,-128.00
2023-03-30T16:38:17.964Z,-128.00
2023-03-30T16:40:51.269Z,-128.00
2023-03-30T16:43:20.010Z,-128.00
2023-03-30T16:45:48.276Z,-128.00
2023-03-30T16:48:16.732Z,-128.00
2023-03-30T16:50:47.035Z,-128.00
2023-03-30T16:53:15.677Z,-128.00
2023-03-30T16:55:44.038Z,-128.00
2023-03-30T16:58:15.888Z,-128.00
2023-03-30T17:00:50.412Z,-128.00
2023-03-30T17:03:19.671Z,-128.00
2023-03-30T17:05:49.784Z,-128.00
2023-03-30T17:08:22.188Z,-128.00
2023-03-30T17:10:51.158Z,-128.00
2023-03-30T17:13:29.263Z,-128.00
2023-03-30T17:16:17.541Z,-128.00
2023-03-30T17:18:46.161Z,-128.00
2023-03-30T17:21:16.733Z,-128.00
2023-03-30T17:23:47.924Z,-128.00
2023-03-30T17:26:17.182Z,-128.00
2023-03-30T17:28:46.694Z,-128.00
2023-03-30T17:31:17.031Z,-128.00
2023-03-30T17:33:46.346Z,-128.00
2023-03-30T17:36:18.050Z,-128.00
2023-03-30T17:38:50.682Z,-128.00
2023-03-30T17:41:19.716Z,-128.00
2023-03-30T17:43:48.613Z,-128.00
2023-03-30T17:46:18.686Z,-128.00
2023-03-30T17:48:47.577Z,-128.00
2023-03-30T17:51:16.353Z,-128.00
2023-03-30T17:53:45.449Z,-128.00
2023-03-30T17:56:19.897Z,-128.00
2023-03-30T17:58:49.806Z,-128.00
2023-03-30T18:01:18.210Z,-128.00
2023-03-30T18:03:47.984Z,-128.00
2023-03-30T18:06:16.519Z,-128.00
2023-03-30T18:08:44.799Z,-128.00
2023-03-30T18:11:14.101Z,-128.00
2023-03-30T18:13:42.816Z,-128.00
2023-03-30T18:16:12.958Z,-128.00
2023-03-30T18:18:44.339Z,-128.00
2023-03-30T18:21:12.800Z,-128.00
2023-03-30T18:23:43.687Z,-128.00
2023-03-30T18:26:12.998Z,-128.00
2023-03-30T18:28:44.598Z,-128.00
2023-03-30T18:31:13.103Z,-128.00
2023-03-30T18:33:41.673Z,-128.00
2023-03-30T18:36:12.957Z,-128.00
2023-03-30T18:38:42.390Z,-128.00
2023-03-30T18:41:13.227Z,-128.00
2023-03-30T18:43:42.711Z,-128.00
2023-03-30T18:46:14.507Z,-128.00
2023-03-30T18:48:43.748Z,-128.00
2023-03-30T18:51:12.892Z,-128.00
2023-03-30T18:53:42.855Z,-128.00
2023-03-30T18:56:11.738Z,-128.00
2023-03-30T18:58:42.564Z,-128.00
2023-03-30T19:01:16.110Z,-128.00
2023-03-30T19:03:46.043Z,-128.00
2023-03-30T19:06:22.119Z,-128.00
2023-03-30T19:08:51.482Z,-128.00
2023-03-30T19:11:22.297Z,-128.00
2023-03-30T19:13:51.604Z,-128.00
2023-03-30T19:16:22.464Z,-128.00
2023-03-30T19:18:51.192Z,-128.00
2023-03-30T19:21:19.706Z,-128.00
2023-03-30T19:23:48.277Z,-128.00
2023-03-30T19:26:17.225Z,-128.00
2023-03-30T19:28:48.135Z,-128.00
2023-03-30T19:31:16.708Z,-128.00
2023-03-30T19:33:45.692Z,-128.00
2023-03-30T19:36:16.351Z,-128.00
2023-03-30T19:38:44.885Z,-128.00
2023-03-30T19:41:18.744Z,-128.00
2023-03-30T19:43:50.281Z,-128.00
2023-03-30T19:46:22.423Z,-128.00
2023-03-30T19:48:51.822Z,-128.00
2023-03-30T19:51:20.367Z,-128.00
2023-03-30T19:53:50.712Z,-128.00
2023-03-30T19:56:18.888Z,-128.00
2023-03-30T19:58:47.196Z,-128.00
2023-03-30T20:01:16.856Z,-128.00
2023-03-30T20:03:46.124Z,-128.00
2023-03-30T20:06:14.453Z,-128.00
2023-03-30T20:08:44.146Z,-128.00
2023-03-30T20:11:12.784Z,-128.00
2023-03-30T20:13:45.946Z,-128.00
2023-03-30T20:16:20.633Z,-128.00
2023-03-30T20:18:50.912Z,-128.00
2023-03-30T20:21:25.285Z,-128.00
2023-03-30T20:23:56.112Z,-128.00
2023-03-30T20:26:24.650Z,-128.00
2023-03-30T20:28:57.084Z,-128.00
2023-03-30T20:31:25.952Z,-128.00
2023-03-30T20:33:54.470Z,-128.00
2023-03-30T20:36:23.321Z,-128.00
2023-03-30T20:38:52.009Z,-128.00
2023-03-30T20:41:21.897Z,-128.00
2023-03-30T20:43:56.921Z,-128.00
2023-03-30T20:46:35.603Z,-128.00
2023-03-30T20:49:05.189Z,-128.00
2023-03-30T20:51:33.745Z,-128.00
2023-03-30T20:54:02.301Z,-128.00
2023-03-30T20:56:30.912Z,-128.00
2023-03-30T20:58:59.286Z,-128.00
2023-03-30T21:01:28.536Z,-128.00
2023-03-30T21:03:58.710Z,-128.00
2023-03-30T21:06:27.975Z,-128.00
2023-03-30T21:08:58.038Z,-128.00
2023-03-30T21:11:27.382Z,-128.00
2023-03-30T21:13:56.158Z,-128.00
2023-03-30T21:17:06.970Z,16.09
2023-03-30T21:19:35.521Z,17.39
2023-03-30T21:22:04.069Z,17.46
2023-03-30T21:24:34.506Z,17.31
2023-03-30T21:27:02.732Z,17.23
2023-03-30T21:29:32.623Z,17.12
2023-03-30T21:32:01.648Z,17.07
2023-03-30T21:34:30.795Z,17.07
2023-03-30T21:36:59.725Z,17.03
2023-03-30T21:39:28.220Z,16.99
2023-03-30T21:41:56.758Z,16.85
2023-03-30T21:44:25.838Z,16.88
2023-03-30T21:46:54.267Z,16.99
2023-03-30T21:49:22.696Z,17.07
2023-03-30T21:51:51.049Z,16.95
2023-03-30T21:54:20.160Z,17.00
2023-03-30T21:56:48.667Z,16.93
2023-03-30T21:59:19.054Z,16.82
2023-03-30T22:01:47.540Z,16.77
2023-03-30T22:04:15.993Z,16.70
2023-03-30T22:06:44.396Z,16.61
2023-03-30T22:09:13.062Z,16.67
2023-03-30T22:11:46.307Z,16.71
2023-03-30T22:14:14.902Z,16.73
2023-03-30T22:16:43.538Z,16.80
2023-03-30T22:19:13.879Z,16.75
2023-03-30T22:21:42.662Z,16.69
2023-03-30T22:24:11.668Z,16.73
2023-03-30T22:26:40.821Z,16.84
2023-03-30T22:29:09.277Z,16.91
2023-03-30T22:31:43.043Z,16.91
2023-03-30T22:34:12.058Z,17.11
2023-03-30T22:36:41.130Z,17.09
2023-03-30T22:39:17.317Z,17.02
2023-03-30T22:41:46.344Z,17.03
2023-03-30T22:44:15.079Z,16.95
2023-03-30T22:46:43.624Z,16.94
2023-03-30T22:49:14.227Z,16.92
2023-03-30T22:51:52.584Z,16.72
2023-03-30T22:54:21.806Z,16.69
2023-03-30T22:56:51.340Z,16.59
2023-03-30T22:59:21.816Z,16.55
2023-03-30T23:01:50.417Z,16.63
2023-03-30T23:04:19.667Z,16.67
2023-03-30T23:06:48.174Z,16.63
2023-03-30T23:09:16.573Z,16.59
2023-03-30T23:11:47.687Z,16.54
2023-03-30T23:14:16.640Z,16.49
2023-03-30T23:16:46.374Z,16.51
2023-03-30T23:19:16.268Z,16.42
2023-03-30T23:21:45.954Z,16.36
2023-03-30T23:24:16.689Z,16.28
2023-03-30T23:26:45.531Z,16.19
2023-03-30T23:29:13.939Z,16.29
2023-03-30T23:31:43.061Z,16.41
2023-03-30T23:34:12.568Z,16.33
2023-03-30T23:36:43.565Z,16.37
2023-03-30T23:39:12.150Z,16.34
2023-03-30T23:41:41.129Z,16.34
2023-03-30T23:44:12.319Z,16.54
2023-03-30T23:46:41.136Z,16.57
2023-03-30T23:49:09.541Z,16.60
2023-03-30T23:51:38.463Z,16.52
2023-03-30T23:54:07.418Z,16.54
2023-03-30T23:56:42.189Z,16.52
2023-03-30T23:59:11.079Z,16.58
